Shamrock Shores, Texas
Current Conditions -  °F | °C
As of 8:55 AM on Sunday 21 Dec 2014 (Local Time) from KBWD Reporting Station
Overcast Overcast  
Wind Chill:   Ceiling: 1300
Heat Index:   Visibility: 10mi
Dew Point:   Wind: 12mph
Humidity: 82%   Direction: 170°S
Pressure: 30.04"   Gusts: NA
Location:  31.6193°N, 98.9922°W
Report Text: KBWD 211455Z AUTO 17010KT 10SM OVC013 09/06 A3004 RMK AO2
Loading
Personal Weather Stations






























Interactive Weather Map New forecast layout! Learn more

10-Day Weather Forecast

Advertisements
Track Severe Weather on mobile